Terminal Aerodrome Forecast
Issued by NWS Grand Junction, CO

Home | Current Version | Previous Version | Text Only | Print | Product List | Glossary On
Versions: 1 2 3 4 5 6 7 8 9 10 11 12 13 14 15 16 17 18 19 20 21 22 23 24 25 26 27 28 29 30
000
FTUS45 KGJT 060915 AAA
TAFGJT
TAF AMD
KGJT 060915Z 0609/0706 04009KT P6SM VCSH BKN100
      TEMPO 0609/0611 -RA BKN070
     FM061700 17014G20KT P6SM VCSH SCT110 BKN250
     FM062300 23015G25KT P6SM VCSH SCT110 BKN250
     FM070200 30007KT P6SM VCSH BKN090
     FM070400 09008KT P6SM VCSH BKN100=

USA.gov is the U.S. government's official web portal to all federal, state and local government web resources and services.